Sprague, Washington
Current Conditions -  °F | °C
As of 12:58 AM on Friday 24 Oct 2014 (Local Time) from KSKA Reporting Station
Clear Clear  
Wind Chill: 37°   Ceiling: Unl
Heat Index: 43°   Visibility: 10mi
Dew Point: 42°   Wind: 12mph
Humidity: 95%   Direction: 190°S
Pressure: 29.99"   Gusts: NA
Location:  47.3°N, 117.98°W
Report Text: KSKA 240758Z AUTO 19010KT 10SM CLR 06/06 A2999 RMK AO2 UPB0713E0753 SLP163 P0000 T00620055
Loading
Personal Weather Stations






























Interactive Weather Map
Tropical Storm Tracking
New forecast layout! Learn more

10-Day Weather Forecast

Advertisements
Track Severe Weather on mobile